Time;durP1;ratioP1;P1;durP2;ratioP2;P2;SDS_P1;SDS_P2;PMS_P1;PMS_P2;Temp;Humidity;BMP_temperature;BMP_pressure;BME280_temperature;BME280_humidity;BME280_pressure;Samples;Min_cycle;Max_cycle;Signal;HPM_P1;HPM_P2
2023/04/19 00:01:58;;;;;;;40.45;29.48;;;12.80;99.90;;;;;;5052797;28;20040;-74
2023/04/19 00:05:02;;;;;;;38.55;28.95;;;12.50;99.90;;;;;;5052098;28;20507;-74
2023/04/19 00:08:06;;;;;;;37.95;28.70;;;12.40;99.90;;;;;;5053002;28;20060;-75
2023/04/19 00:11:10;;;;;;;44.80;32.42;;;11.80;99.90;;;;;;5052537;28;20060;-74
2023/04/19 00:14:14;;;;;;;42.78;33.42;;;12.50;99.90;;;;;;5052930;28;20519;-73
2023/04/19 00:17:18;;;;;;;41.47;33.05;;;;;;;;;;5052492;28;20048;-74
2023/04/19 00:20:22;;;;;;;37.95;30.30;;;12.30;99.90;;;;;;5052592;28;20044;-74
2023/04/19 00:23:27;;;;;;;38.85;29.45;;;12.30;99.90;;;;;;5051813;28;20158;-74
2023/04/19 00:26:31;;;;;;;40.97;31.33;;;12.30;99.90;;;;;;5052250;28;20059;-74
2023/04/19 00:29:35;;;;;;;42.15;31.27;;;12.20;99.90;;;;;;5051573;28;20067;-74
2023/04/19 00:32:39;;;;;;;36.78;29.15;;;12.20;99.90;;;;;;5052710;28;20052;-74
2023/04/19 00:35:43;;;;;;;37.92;29.42;;;;;;;;;;5051703;28;20503;-74
2023/04/19 00:38:50;;;;;;;38.58;28.85;;;12.00;99.90;;;;;;5051127;28;20052;-74
2023/04/19 00:41:56;;;;;;;38.30;28.60;;;12.00;99.90;;;;;;5051810;28;20063;-74
2023/04/19 00:45:00;;;;;;;35.03;26.98;;;;;;;;;;5052221;28;20044;-74
2023/04/19 00:48:04;;;;;;;39.42;28.80;;;;;;;;;;5051067;28;20484;-74
2023/04/19 00:51:09;;;;;;;40.22;30.65;;;13.20;99.90;;;;;;5039373;28;20052;-74
2023/04/19 00:54:14;;;;;;;42.67;30.55;;;12.00;99.90;;;;;;5051979;28;20040;-74
2023/04/19 00:57:18;;;;;;;37.70;29.67;;;12.00;99.90;;;;;;5050819;28;20048;-73
2023/04/19 01:00:23;;;;;;;40.95;32.20;;;;;;;;;;5039627;28;20048;-74
2023/04/19 01:03:28;;;;;;;42.88;32.83;;;;;;;;;;5051069;28;20071;-74
2023/04/19 01:06:34;;;;;;;40.67;31.83;;;12.00;99.90;;;;;;5051090;28;20044;-74
2023/04/19 01:09:40;;;;;;;37.42;29.80;;;12.10;99.90;;;;;;5051716;28;20052;-75
2023/04/19 01:12:45;;;;;;;39.00;29.95;;;12.10;99.90;;;;;;5051551;28;20048;-74
2023/04/19 01:15:50;;;;;;;35.83;29.55;;;11.90;99.90;;;;;;5051488;28;20048;-74
2023/04/19 01:18:55;;;;;;;39.78;31.55;;;;;;;;;;5050553;28;20062;-74
2023/04/19 01:21:58;;;;;;;40.60;32.55;;;11.70;99.90;;;;;;5050542;28;20051;-74
2023/04/19 01:25:03;;;;;;;39.10;32.67;;;11.80;99.90;;;;;;5050515;28;20075;-75
2023/04/19 01:28:08;;;;;;;42.70;32.45;;;11.60;99.90;;;;;;5051233;28;20617;-74
2023/04/19 01:31:12;;;;;;;42.75;32.88;;;;;;;;;;5051088;28;20052;-73
2023/04/19 01:34:17;;;;;;;40.28;31.48;;;;;;;;;;5051056;28;20045;-73
2023/04/19 01:37:22;;;;;;;43.38;32.08;;;;;;;;;;5051100;28;20044;-74
2023/04/19 01:40:26;;;;;;;43.55;32.70;;;11.70;99.90;;;;;;5050877;28;20040;-74
2023/04/19 01:43:30;;;;;;;40.03;29.95;;;12.50;99.90;;;;;;5050993;28;20044;-74
2023/04/19 01:46:37;;;;;;;37.47;29.00;;;;;;;;;;5050976;28;20044;-75
2023/04/19 01:49:41;;;;;;;37.58;29.00;;;11.90;99.90;;;;;;5051121;28;20052;-75
2023/04/19 01:52:46;;;;;;;38.38;30.30;;;11.80;99.90;;;;;;5050007;28;20044;-73
2023/04/19 01:55:49;;;;;;;41.70;30.30;;;11.80;99.90;;;;;;5038782;28;20040;-74
2023/04/19 01:58:53;;;;;;;42.40;30.55;;;12.00;99.90;;;;;;5049992;28;20127;-74
2023/04/19 02:01:57;;;;;;;41.67;29.88;;;12.00;99.90;;;;;;5049782;28;20048;-74
2023/04/19 02:05:02;;;;;;;42.05;30.27;;;11.60;99.90;;;;;;5050144;28;20043;-74
2023/04/19 02:08:05;;;;;;;37.17;29.27;;;11.90;99.90;;;;;;5049973;28;20040;-75
2023/04/19 02:11:13;;;;;;;38.25;29.98;;;11.90;99.90;;;;;;5050594;28;20409;-75
2023/04/19 02:14:17;;;;;;;38.33;27.98;;;12.00;99.90;;;;;;5050495;28;20040;-74
2023/04/19 02:17:22;;;;;;;37.92;27.90;;;11.50;99.90;;;;;;5051109;28;20048;-74
2023/04/19 02:20:30;;;;;;;36.95;27.45;;;11.90;99.90;;;;;;5049638;28;20067;-74
2023/04/19 02:23:34;;;;;;;40.08;29.15;;;;;;;;;;5050678;28;20056;-74
2023/04/19 02:26:39;;;;;;;38.78;28.58;;;11.90;99.90;;;;;;5010448;28;20045;-75
2023/04/19 02:29:43;;;;;;;39.58;27.73;;;11.70;99.90;;;;;;5010009;28;20064;-75
2023/04/19 02:32:48;;;;;;;39.45;28.65;;;11.90;99.90;;;;;;5011190;28;20501;-75
2023/04/19 02:35:52;;;;;;;35.17;27.52;;;11.80;99.90;;;;;;5011378;28;20045;-74
2023/04/19 02:38:58;;;;;;;36.92;28.25;;;11.80;99.90;;;;;;5012042;28;20041;-74
2023/04/19 02:42:02;;;;;;;39.30;29.13;;;11.90;99.90;;;;;;5010857;28;20041;-74
2023/04/19 02:45:06;;;;;;;38.70;28.13;;;12.20;99.90;;;;;;5012208;28;20045;-74
2023/04/19 02:48:10;;;;;;;42.92;29.98;;;11.90;99.90;;;;;;5010735;28;20041;-74
2023/04/19 02:51:17;;;;;;;40.33;29.67;;;12.00;99.90;;;;;;5010078;28;20056;-75
2023/04/19 02:54:21;;;;;;;36.90;27.40;;;12.30;99.90;;;;;;5002544;28;20513;-74
2023/04/19 02:57:25;;;;;;;34.60;23.45;;;12.40;99.90;;;;;;5013940;28;20048;-73
2023/04/19 03:00:30;;;;;;;28.50;18.48;;;;;;;;;;5014212;28;20057;-75
2023/04/19 03:03:42;;;;;;;23.45;16.40;;;12.10;99.90;;;;;;5014823;28;20053;-73
2023/04/19 03:06:46;;;;;;;19.83;15.05;;;;;;;;;;5014383;28;20049;-73
2023/04/19 03:09:50;;;;;;;21.58;15.40;;;12.00;99.90;;;;;;5013897;28;20050;-73
2023/04/19 03:12:54;;;;;;;21.08;15.95;;;12.20;99.90;;;;;;5014034;28;20053;-74
2023/04/19 03:15:58;;;;;;;35.00;23.65;;;11.80;99.90;;;;;;5014663;28;20049;-74
2023/04/19 03:19:02;;;;;;;30.10;23.27;;;;;;;;;;5002637;28;20049;-74
2023/04/19 03:22:12;;;;;;;29.13;21.88;;;11.90;99.90;;;;;;5013647;28;20046;-74
2023/04/19 03:25:17;;;;;;;28.15;19.33;;;11.80;99.90;;;;;;5032971;28;20076;-73
2023/04/19 03:28:27;;;;;;;26.35;20.92;;;11.90;99.90;;;;;;5053310;28;20036;-73
2023/04/19 03:31:56;;;;;;;20.73;15.07;;;11.80;99.90;;;;;;5041464;28;20083;-74
2023/04/19 03:35:01;;;;;;;18.77;14.13;;;;;;;;;;5053049;28;20044;-74
2023/04/19 03:38:06;;;;;;;18.90;13.23;;;11.90;99.90;;;;;;5053091;28;20052;-73
2023/04/19 03:41:22;;;;;;;20.77;14.23;;;11.90;99.90;;;;;;5052762;28;20048;-73
2023/04/19 03:44:33;;;;;;;18.55;13.80;;;11.90;99.90;;;;;;5052462;28;20056;-73
2023/04/19 03:47:39;;;;;;;21.75;13.55;;;11.80;99.90;;;;;;5041057;28;20043;-74
2023/04/19 03:50:44;;;;;;;18.88;13.55;;;13.90;99.90;;;;;;5052564;28;20087;-74
2023/04/19 03:53:52;;;;;;;19.60;13.80;;;;;;;;;;5052508;28;20119;-74
2023/04/19 03:56:56;;;;;;;18.00;13.73;;;12.00;99.90;;;;;;5052676;28;20044;-74
2023/04/19 04:00:05;;;;;;;17.33;13.70;;;11.90;99.90;;;;;;5041388;28;20051;-74
2023/04/19 04:03:18;;;;;;;18.92;13.57;;;11.80;99.90;;;;;;5052454;28;20048;-74
2023/04/19 04:06:21;;;;;;;20.70;15.05;;;11.90;99.90;;;;;;5040764;28;20048;-74
2023/04/19 04:09:25;;;;;;;18.98;13.98;;;12.90;99.90;;;;;;5053156;28;20048;-73
2023/04/19 04:12:30;;;;;;;19.10;14.70;;;11.80;99.90;;;;;;5052523;28;20060;-74
2023/04/19 04:15:35;;;;;;;25.77;19.58;;;11.90;99.90;;;;;;5052095;28;20044;-74
2023/04/19 04:18:40;;;;;;;23.75;16.63;;;11.90;99.90;;;;;;5052564;28;20500;-74
2023/04/19 04:21:48;;;;;;;23.65;17.70;;;11.90;99.90;;;;;;5051806;28;20044;-75
2023/04/19 04:24:53;;;;;;;25.95;17.55;;;;;;;;;;5040114;28;20062;-75
2023/04/19 04:28:02;;;;;;;27.70;21.48;;;11.90;99.90;;;;;;5041326;28;20500;-75
2023/04/19 04:31:06;;;;;;;31.92;21.02;;;11.90;99.90;;;;;;5040154;28;20072;-75
2023/04/19 04:34:13;;;;;;;28.73;21.00;;;11.80;99.90;;;;;;5051460;28;20044;-75
2023/04/19 04:37:25;;;;;;;33.58;20.33;;;12.00;99.90;;;;;;5051698;28;20052;-73
2023/04/19 04:40:29;;;;;;;27.98;19.00;;;11.90;99.90;;;;;;5039961;28;20067;-75
2023/04/19 04:43:33;;;;;;;30.10;20.30;;;12.00;99.90;;;;;;5051457;28;20044;-75
2023/04/19 04:46:37;;;;;;;32.28;21.85;;;11.90;99.90;;;;;;5052356;28;20052;-74
2023/04/19 04:49:42;;;;;;;26.25;19.85;;;11.90;99.90;;;;;;5052137;28;20036;-73
2023/04/19 04:52:46;;;;;;;25.95;19.52;;;;;;;;;;5058168;28;20051;-74
2023/04/19 04:55:55;;;;;;;24.30;17.25;;;12.00;99.90;;;;;;5056653;28;20032;-74
2023/04/19 04:59:01;;;;;;;24.33;15.98;;;12.00;99.90;;;;;;5059771;28;20507;-74
2023/04/19 05:02:11;;;;;;;23.73;16.10;;;12.00;99.90;;;;;;5046126;28;20040;-75
2023/04/19 05:05:17;;;;;;;25.15;17.70;;;12.00;99.90;;;;;;5057015;28;20048;-73
2023/04/19 05:08:21;;;;;;;23.30;17.38;;;12.10;99.90;;;;;;5055346;28;20044;-74
2023/04/19 05:11:26;;;;;;;23.70;17.27;;;12.50;99.90;;;;;;5051814;28;20052;-74
2023/04/19 05:14:31;;;;;;;25.67;18.65;;;12.20;99.90;;;;;;5050869;28;20040;-75
2023/04/19 05:17:35;;;;;;;24.98;17.60;;;12.10;99.90;;;;;;5051750;28;20063;-68
2023/04/19 05:20:39;;;;;;;23.23;17.08;;;12.70;99.90;;;;;;5051455;28;20032;-68
2023/04/19 05:23:53;;;;;;;25.55;18.30;;;12.00;99.90;;;;;;5051099;28;20052;-67
2023/04/19 05:26:57;;;;;;;30.23;20.20;;;12.10;99.90;;;;;;5051422;28;20116;-67
2023/04/19 05:30:04;;;;;;;30.70;21.45;;;12.10;99.90;;;;;;5050558;28;20047;-67
2023/04/19 05:33:09;;;;;;;28.55;21.75;;;12.00;99.90;;;;;;5050836;28;20063;-69
2023/04/19 05:36:15;;;;;;;31.88;23.25;;;12.20;99.90;;;;;;5050488;28;20044;-69
2023/04/19 05:39:19;;;;;;;28.80;23.23;;;12.10;99.90;;;;;;5039444;28;20519;-68
2023/04/19 05:42:18;;;;;;;32.55;23.88;;;12.00;99.90;;;;;;5390968;22;20049;-67
2023/04/19 05:45:22;;;;;;;34.75;25.10;;;11.60;99.90;;;;;;5031083;28;20049;-69
2023/04/19 05:48:26;;;;;;;33.05;24.38;;;;;;;;;;5018820;28;20044;-68
2023/04/19 05:52:02;;;;;;;32.95;24.30;;;12.10;99.90;;;;;;5002097;28;20052;-68
2023/04/19 05:55:16;;;;;;;34.40;24.70;;;;;;;;;;5030286;28;20040;-67
2023/04/19 05:58:23;;;;;;;36.97;25.70;;;12.20;99.90;;;;;;5030758;28;20515;-68
2023/04/19 06:01:27;;;;;;;36.67;26.35;;;12.10;99.90;;;;;;5030157;28;20083;-68
2023/04/19 06:04:32;;;;;;;38.20;28.30;;;12.20;99.90;;;;;;5030305;28;20060;-68
2023/04/19 06:07:36;;;;;;;39.97;28.63;;;11.90;99.90;;;;;;5030107;28;20041;-68
2023/04/19 06:10:43;;;;;;;40.95;30.05;;;12.20;99.90;;;;;;5030128;28;20060;-68
2023/04/19 06:13:49;;;;;;;38.13;27.67;;;12.20;99.90;;;;;;5030431;28;20040;-68
2023/04/19 06:16:53;;;;;;;36.05;26.10;;;12.40;99.90;;;;;;5030328;28;20401;-68
2023/04/19 06:19:58;;;;;;;34.13;26.33;;;12.40;99.90;;;;;;5030838;28;20049;-68
2023/04/19 06:23:02;;;;;;;32.90;25.75;;;12.60;99.90;;;;;;5031098;28;20040;-68
2023/04/19 06:26:06;;;;;;;44.72;25.20;;;12.70;99.90;;;;;;5031475;28;20515;-68
2023/04/19 06:29:10;;;;;;;33.58;24.88;;;12.70;99.90;;;;;;5033333;28;20049;-68
2023/04/19 06:32:14;;;;;;;33.03;25.92;;;12.80;99.90;;;;;;5034111;28;20060;-68
2023/04/19 06:35:18;;;;;;;34.78;26.17;;;;;;;;;;5034819;28;20052;-67
2023/04/19 06:38:22;;;;;;;38.15;26.20;;;12.90;99.90;;;;;;5034114;28;20044;-68
2023/04/19 06:41:26;;;;;;;32.03;25.27;;;13.20;99.90;;;;;;5034248;28;20413;-69
2023/04/19 06:44:31;;;;;;;32.45;25.05;;;;;;;;;;5034664;28;20060;-68
2023/04/19 06:47:35;;;;;;;32.05;24.38;;;;;;;;;;5034344;28;20045;-68
2023/04/19 06:50:39;;;;;;;34.28;24.92;;;;;;;;;;5034347;28;20041;-68
2023/04/19 06:53:44;;;;;;;29.40;21.42;;;;;;;;;;5034125;28;20056;-68
2023/04/19 06:56:49;;;;;;;28.70;22.27;;;13.60;99.90;;;;;;5033344;28;20060;-68
2023/04/19 06:59:57;;;;;;;34.17;23.42;;;14.00;99.90;;;;;;5034501;28;20049;-69
2023/04/19 07:03:01;;;;;;;34.80;22.40;;;14.10;99.90;;;;;;5033982;28;20777;-68
2023/04/19 07:06:06;;;;;;;37.92;22.02;;;14.30;99.90;;;;;;5033977;28;20156;-69
2023/04/19 07:09:10;;;;;;;31.92;21.95;;;13.90;99.90;;;;;;5034061;28;20060;-67
2023/04/19 07:12:14;;;;;;;34.30;23.10;;;14.40;99.90;;;;;;5032510;28;20060;-66
2023/04/19 07:15:17;;;;;;;27.33;20.17;;;14.60;99.90;;;;;;5033794;28;20160;-66
2023/04/19 07:18:22;;;;;;;26.75;18.80;;;15.20;99.90;;;;;;5034039;28;20500;-66
2023/04/19 07:21:31;;;;;;;20.05;15.52;;;15.70;99.90;;;;;;5033591;28;20064;-65
2023/04/19 07:24:39;;;;;;;19.35;13.60;;;16.20;99.90;;;;;;5033963;28;20057;-66
2023/04/19 07:27:42;;;;;;;22.55;15.65;;;16.60;99.90;;;;;;5033564;28;20045;-68
2023/04/19 07:30:46;;;;;;;22.77;11.77;;;17.00;99.90;;;;;;5033681;28;20085;-67
2023/04/19 07:33:51;;;;;;;16.77;11.32;;;17.40;99.90;;;;;;5033649;28;20057;-67
2023/04/19 07:36:55;;;;;;;13.75;9.77;;;17.70;99.90;;;;;;5032636;28;20044;-68
2023/04/19 07:39:59;;;;;;;17.25;11.95;;;17.90;99.20;;;;;;5032512;28;20396;-66
2023/04/19 07:43:04;;;;;;;14.80;9.73;;;18.30;99.10;;;;;;5033379;28;20056;-68
2023/04/19 07:46:09;;;;;;;10.40;8.32;;;18.40;98.10;;;;;;5033393;28;20040;-67
2023/04/19 07:49:14;;;;;;;13.98;9.20;;;18.50;97.10;;;;;;5032256;28;20048;-68
2023/04/19 07:52:18;;;;;;;8.07;6.97;;;18.60;96.80;;;;;;5032594;28;20051;-67
2023/04/19 07:55:22;;;;;;;7.93;5.80;;;18.70;96.30;;;;;;5032859;28;20044;-68
2023/04/19 07:58:26;;;;;;;11.57;6.93;;;18.90;96.10;;;;;;5032929;28;20048;-68
2023/04/19 08:01:30;;;;;;;9.48;7.60;;;19.20;95.30;;;;;;5032769;28;20040;-67
2023/04/19 08:04:34;;;;;;;6.78;5.82;;;19.30;93.90;;;;;;5033047;28;20044;-67
2023/04/19 08:07:39;;;;;;;8.57;6.80;;;19.40;94.20;;;;;;5032889;28;20049;-67
2023/04/19 08:10:43;;;;;;;9.07;5.65;;;19.50;93.40;;;;;;5032718;28;20048;-68
2023/04/19 08:13:47;;;;;;;8.90;4.97;;;19.60;93.30;;;;;;5032983;28;20056;-67
2023/04/19 08:16:51;;;;;;;7.60;5.00;;;19.80;92.60;;;;;;5033028;28;20048;-66
2023/04/19 08:19:55;;;;;;;6.40;4.50;;;19.90;92.90;;;;;;5033052;28;20044;-67
2023/04/19 08:23:02;;;;;;;6.95;4.93;;;20.00;92.40;;;;;;5033042;28;20057;-67
2023/04/19 08:26:06;;;;;;;5.55;4.32;;;20.10;92.20;;;;;;5032787;28;20048;-67
2023/04/19 08:29:10;;;;;;;6.25;4.18;;;20.20;92.00;;;;;;5032541;28;20396;-68
2023/04/19 08:32:14;;;;;;;7.80;3.75;;;20.30;92.00;;;;;;5032284;28;20052;-66
2023/04/19 08:35:19;;;;;;;4.25;2.92;;;20.40;91.10;;;;;;5032701;28;20053;-68
2023/04/19 08:38:23;;;;;;;4.63;3.35;;;20.40;89.40;;;;;;5032242;28;20535;-68
2023/04/19 08:41:29;;;;;;;6.72;3.40;;;20.50;88.80;;;;;;5032154;28;20044;-67
2023/04/19 08:44:37;;;;;;;6.43;3.63;;;20.50;88.50;;;;;;5032100;28;20064;-68
2023/04/19 08:47:41;;;;;;;8.80;3.88;;;20.40;88.60;;;;;;5032299;28;20044;-69
2023/04/19 08:50:45;;;;;;;5.93;3.58;;;20.40;88.10;;;;;;5031071;28;20053;-68
2023/04/19 08:53:50;;;;;;;5.43;3.58;;;20.20;88.00;;;;;;5031919;28;20048;-67
2023/04/19 08:56:54;;;;;;;6.85;3.90;;;20.10;89.20;;;;;;5032000;28;20048;-68
2023/04/19 09:00:08;;;;;;;4.30;3.85;;;20.20;90.20;;;;;;5031677;28;20392;-67
2023/04/19 09:03:11;;;;;;;6.55;3.92;;;20.30;90.50;;;;;;5030907;28;20052;-67
2023/04/19 09:06:15;;;;;;;5.50;3.80;;;20.40;90.10;;;;;;5031601;28;20045;-67
2023/04/19 09:09:28;;;;;;;6.32;3.78;;;20.50;89.90;;;;;;5031674;28;20093;-68
2023/04/19 09:12:33;;;;;;;4.97;3.58;;;20.50;88.90;;;;;;5031554;28;20056;-67
2023/04/19 09:15:40;;;;;;;5.18;3.40;;;20.50;88.30;;;;;;5031062;28;20046;-69
2023/04/19 09:18:57;;;;;;;5.25;4.30;;;20.60;88.90;;;;;;5032000;28;20051;-65
2023/04/19 09:22:12;;;;;;;7.15;3.70;;;20.60;88.90;;;;;;5031361;28;20045;-68
2023/04/19 09:25:36;;;;;;;4.47;3.45;;;20.50;89.50;;;;;;5031508;28;20108;-68
2023/04/19 09:28:40;;;;;;;8.60;3.22;;;20.50;86.90;;;;;;5031550;28;20056;-66
2023/04/19 09:31:56;;;;;;;4.75;3.42;;;20.30;86.90;;;;;;5031470;28;20057;-68
2023/04/19 09:35:00;;;;;;;6.53;3.75;;;20.40;89.00;;;;;;5030952;28;20060;-66
2023/04/19 09:38:04;;;;;;;4.93;3.47;;;20.50;88.90;;;;;;5031907;28;20499;-67
2023/04/19 09:41:09;;;;;;;5.97;3.95;;;20.60;89.30;;;;;;5031235;28;20068;-66
2023/04/19 09:44:14;;;;;;;7.97;4.93;;;20.70;87.10;;;;;;5031292;28;20056;-67
2023/04/19 09:47:23;;;;;;;4.25;3.85;;;20.80;87.60;;;;;;5031456;28;20052;-65
2023/04/19 09:50:28;;;;;;;5.82;3.70;;;20.80;86.00;;;;;;5031046;28;20044;-66
2023/04/19 09:53:35;;;;;;;6.75;4.30;;;20.90;86.00;;;;;;5031456;28;20052;-66
2023/04/19 09:56:40;;;;;;;5.00;3.92;;;20.90;84.00;;;;;;5030278;28;20044;-68
2023/04/19 09:59:44;;;;;;;6.53;4.25;;;20.90;84.90;;;;;;5031334;28;20044;-66
2023/04/19 10:02:56;;;;;;;4.20;3.65;;;21.00;84.50;;;;;;5031259;28;20048;-65
2023/04/19 10:06:01;;;;;;;5.10;3.88;;;21.10;84.10;;;;;;5031192;28;20520;-66
2023/04/19 10:09:07;;;;;;;8.27;3.78;;;21.30;84.00;;;;;;5031532;28;20048;-73
2023/04/19 10:12:14;;;;;;;7.95;4.15;;;21.40;81.40;;;;;;5030911;28;20404;-65
2023/04/19 10:15:21;;;;;;;3.78;3.47;;;21.50;79.30;;;;;;5030977;28;20040;-67
2023/04/19 10:18:25;;;;;;;7.72;3.83;;;21.50;79.00;;;;;;5030243;28;20048;-66
2023/04/19 10:21:30;;;;;;;5.30;3.78;;;21.60;81.10;;;;;;5028846;28;20052;-65
2023/04/19 10:24:34;;;;;;;5.68;3.72;;;21.70;80.30;;;;;;5028591;28;20515;-65
2023/04/19 10:27:40;;;;;;;5.10;3.45;;;21.90;79.80;;;;;;5029307;28;20385;-66
2023/04/19 10:31:00;;;;;;;8.95;4.22;;;22.00;78.70;;;;;;5028810;28;20048;-67
2023/04/19 10:34:05;;;;;;;10.55;3.90;;;21.90;78.50;;;;;;5030572;28;20404;-67
2023/04/19 10:37:10;;;;;;;6.32;4.43;;;21.80;80.40;;;;;;5030815;28;20611;-67
2023/04/19 10:40:54;;;;;;;5.93;3.72;;;21.50;79.50;;;;;;5030482;28;20049;-66
2023/04/19 10:43:58;;;;;;;5.35;4.18;;;21.30;80.20;;;;;;5031089;28;20053;-67
2023/04/19 10:47:04;;;;;;;5.40;4.80;;;21.10;81.40;;;;;;5029701;28;20048;-64
2023/04/19 10:50:08;;;;;;;7.80;4.40;;;21.00;82.20;;;;;;5030578;28;20388;-67
2023/04/19 10:53:42;;;;;;;7.68;4.65;;;20.90;82.50;;;;;;5030504;28;20068;-67
2023/04/19 10:57:07;;;;;;;10.20;5.28;;;21.00;81.90;;;;;;5027634;28;20040;-68
2023/04/19 11:00:21;;;;;;;7.68;4.72;;;21.00;83.40;;;;;;5029824;28;20116;-66
2023/04/19 11:03:43;;;;;;;4.75;4.28;;;20.90;84.20;;;;;;5028859;28;20052;-67
2023/04/19 11:06:53;;;;;;;5.43;4.20;;;20.80;82.60;;;;;;5029748;28;20421;-66
2023/04/19 11:09:57;;;;;;;5.75;4.18;;;20.90;82.60;;;;;;5029488;28;20128;-67
2023/04/19 11:13:01;;;;;;;5.93;4.07;;;21.00;82.30;;;;;;5029721;28;20089;-66
2023/04/19 11:16:08;;;;;;;7.72;5.30;;;21.00;83.20;;;;;;5033873;28;20504;-65
2023/04/19 11:19:17;;;;;;;7.78;6.20;;;20.90;82.60;;;;;;5021146;28;20549;-66
2023/04/19 11:22:35;;;;;;;7.28;4.55;;;20.80;83.60;;;;;;5032681;28;20416;-65
2023/04/19 11:25:39;;;;;;;7.78;4.97;;;20.90;83.80;;;;;;5034037;28;20052;-66
2023/04/19 11:28:44;;;;;;;7.38;4.90;;;21.10;84.80;;;;;;5034029;28;20056;-67
2023/04/19 11:31:47;;;;;;;11.23;6.88;;;21.20;84.70;;;;;;5033755;28;20052;-66
2023/04/19 11:34:51;;;;;;;6.95;5.68;;;21.30;84.60;;;;;;5033747;28;20052;-67
2023/04/19 11:37:58;;;;;;;11.57;6.38;;;21.30;85.30;;;;;;5033332;28;20056;-66
2023/04/19 11:41:03;;;;;;;13.10;6.45;;;21.20;84.60;;;;;;5033395;28;20532;-66
2023/04/19 11:44:15;;;;;;;9.05;6.18;;;21.20;84.70;;;;;;5033243;28;20056;-66
2023/04/19 11:47:19;;;;;;;8.68;6.65;;;21.20;82.90;;;;;;5033697;28;20074;-65
2023/04/19 11:50:40;;;;;;;10.88;6.88;;;21.30;84.30;;;;;;5032697;28;20052;-66
2023/04/19 11:53:44;;;;;;;9.00;6.93;;;21.30;86.10;;;;;;5033229;28;20123;-66
2023/04/19 11:57:05;;;;;;;8.00;6.63;;;21.40;86.50;;;;;;5031605;28;20044;-66
2023/04/19 12:00:10;;;;;;;15.68;8.30;;;21.40;86.20;;;;;;5031361;28;20075;-68
2023/04/19 12:03:23;;;;;;;12.15;7.60;;;21.40;86.70;;;;;;5032152;28;20562;-67
2023/04/19 12:06:32;;;;;;;11.30;8.38;;;21.40;87.50;;;;;;5032321;28;20048;-67
2023/04/19 12:09:37;;;;;;;10.85;8.15;;;21.40;87.70;;;;;;5033301;28;20044;-66
2023/04/19 12:12:41;;;;;;;9.43;7.30;;;21.40;87.50;;;;;;5033011;28;20056;-66
2023/04/19 12:15:45;;;;;;;15.32;7.75;;;21.40;87.40;;;;;;5032884;28;20044;-67
2023/04/19 12:18:50;;;;;;;8.23;6.25;;;21.40;87.90;;;;;;5032965;28;20117;-66
2023/04/19 12:22:07;;;;;;;9.52;6.90;;;21.40;87.10;;;;;;5031964;28;20045;-67
2023/04/19 12:25:11;;;;;;;19.92;7.32;;;21.40;87.70;;;;;;5031896;28;20041;-65
2023/04/19 12:28:15;;;;;;;11.43;6.18;;;21.40;87.10;;;;;;5032687;28;20389;-66
2023/04/19 12:31:20;;;;;;;6.90;4.93;;;21.40;86.90;;;;;;5032552;28;20048;-67
2023/04/19 12:34:24;;;;;;;5.75;4.80;;;21.20;87.20;;;;;;5032551;28;20044;-65
2023/04/19 12:37:29;;;;;;;8.02;4.82;;;21.10;87.30;;;;;;5032301;28;20041;-66
2023/04/19 12:40:33;;;;;;;13.68;4.10;;;21.00;87.30;;;;;;5032089;28;20052;-67
2023/04/19 12:43:37;;;;;;;4.75;3.67;;;20.90;87.70;;;;;;5032270;28;20061;-66
2023/04/19 12:46:41;;;;;;;5.18;3.83;;;20.80;87.70;;;;;;5032483;28;20032;-66
2023/04/19 12:49:45;;;;;;;6.63;4.00;;;20.70;89.00;;;;;;5032265;28;20044;-67
2023/04/19 12:52:50;;;;;;;10.45;3.85;;;20.60;89.20;;;;;;5031983;28;20052;-67
2023/04/19 12:55:54;;;;;;;4.97;3.20;;;20.60;88.70;;;;;;5031986;28;20036;-65
2023/04/19 12:59:00;;;;;;;10.00;6.70;;;20.50;89.10;;;;;;5032213;28;20056;-67
2023/04/19 13:02:05;;;;;;;4.82;3.40;;;20.50;88.50;;;;;;5031986;28;20053;-67
2023/04/19 13:05:11;;;;;;;8.20;3.17;;;20.60;88.40;;;;;;5031223;28;20056;-66
2023/04/19 13:08:15;;;;;;;5.28;3.25;;;20.50;88.40;;;;;;5031963;28;20037;-65
2023/04/19 13:11:21;;;;;;;7.03;3.45;;;20.50;88.40;;;;;;5030634;28;20040;-66
2023/04/19 13:14:26;;;;;;;3.25;2.85;;;20.50;88.90;;;;;;5031728;28;20048;-65
2023/04/19 13:17:31;;;;;;;5.10;2.95;;;20.60;89.30;;;;;;5031851;28;20468;-67
2023/04/19 13:20:35;;;;;;;12.95;3.40;;;20.70;87.60;;;;;;5030843;28;20040;-65
2023/04/19 13:23:39;;;;;;;5.18;2.45;;;20.80;86.40;;;;;;5031462;28;20048;-66
2023/04/19 13:26:45;;;;;;;4.50;2.85;;;20.90;86.30;;;;;;5031670;28;20041;-65
2023/04/19 13:29:49;;;;;;;5.10;2.55;;;20.90;86.50;;;;;;5031339;28;20052;-66
2023/04/19 13:32:53;;;;;;;3.42;2.55;;;21.00;84.20;;;;;;5030734;28;20460;-66
2023/04/19 13:35:59;;;;;;;4.38;2.80;;;21.00;83.00;;;;;;5031399;28;20048;-67
2023/04/19 13:39:04;;;;;;;5.32;2.83;;;21.00;83.20;;;;;;5031568;28;20052;-66
2023/04/19 13:42:08;;;;;;;2.22;2.03;;;21.00;84.00;;;;;;5031301;28;20048;-68
2023/04/19 13:45:13;;;;;;;3.55;2.53;;;21.00;84.40;;;;;;5031499;28;20056;-66
2023/04/19 13:48:16;;;;;;;3.65;2.25;;;21.00;83.90;;;;;;5031380;28;20159;-66
2023/04/19 13:51:21;;;;;;;2.70;2.50;;;21.10;83.20;;;;;;5031098;28;20064;-65
2023/04/19 13:54:25;;;;;;;4.53;2.50;;;21.10;84.10;;;;;;5031297;28;20048;-67
2023/04/19 13:57:29;;;;;;;3.10;2.70;;;21.20;84.20;;;;;;5031224;28;20040;-66
2023/04/19 14:00:33;;;;;;;3.20;2.72;;;21.10;83.80;;;;;;5030964;28;20049;-67
2023/04/19 14:03:37;;;;;;;4.65;2.85;;;21.00;82.50;;;;;;5030919;28;20045;-67
2023/04/19 14:06:42;;;;;;;3.50;2.55;;;20.90;82.40;;;;;;5030351;28;20045;-67
2023/04/19 14:09:46;;;;;;;2.83;2.30;;;20.80;81.70;;;;;;5030965;28;20036;-66
2023/04/19 14:12:53;;;;;;;6.30;3.22;;;20.80;83.40;;;;;;5030709;28;20052;-67
2023/04/19 14:15:57;;;;;;;3.38;2.47;;;20.80;84.00;;;;;;5031008;28;20044;-67
2023/04/19 14:19:01;;;;;;;4.75;2.88;;;20.80;83.70;;;;;;5031052;28;20040;-65
2023/04/19 14:22:05;;;;;;;5.25;2.50;;;20.80;83.90;;;;;;5030551;28;20056;-66
2023/04/19 14:25:11;;;;;;;4.10;2.40;;;20.80;83.90;;;;;;5030911;28;20041;-66
2023/04/19 14:28:15;;;;;;;3.22;2.70;;;20.90;84.40;;;;;;5029880;28;20048;-66
2023/04/19 14:31:19;;;;;;;4.20;2.67;;;20.90;83.80;;;;;;5030844;28;20041;-66
2023/04/19 14:34:24;;;;;;;4.43;3.00;;;20.80;82.80;;;;;;5030545;28;20061;-68
2023/04/19 14:37:28;;;;;;;5.75;2.80;;;20.80;83.40;;;;;;5030810;28;20226;-67
2023/04/19 14:40:32;;;;;;;3.53;3.00;;;20.80;84.10;;;;;;5030536;28;20044;-66
2023/04/19 14:43:37;;;;;;;3.15;2.33;;;20.80;84.00;;;;;;5030265;28;20048;-67
2023/04/19 14:46:41;;;;;;;5.30;3.25;;;20.80;84.90;;;;;;5030548;28;20394;-66
2023/04/19 14:49:45;;;;;;;3.35;2.53;;;20.80;84.30;;;;;;5033491;28;20509;-67
2023/04/19 14:52:50;;;;;;;3.10;2.70;;;20.60;83.80;;;;;;5034358;28;20515;-67
2023/04/19 14:55:54;;;;;;;4.65;2.50;;;20.60;82.30;;;;;;5034402;28;20044;-67
2023/04/19 14:58:59;;;;;;;4.30;2.83;;;20.60;83.30;;;;;;5034368;28;20041;-67
2023/04/19 15:02:02;;;;;;;5.50;3.05;;;20.60;83.60;;;;;;5034304;28;20044;-65
2023/04/19 15:05:07;;;;;;;4.22;2.40;;;20.60;84.00;;;;;;5034258;28;20396;-66
2023/04/19 15:08:11;;;;;;;6.40;3.17;;;20.60;84.20;;;;;;5033939;28;20052;-65
2023/04/19 15:11:15;;;;;;;5.43;3.03;;;20.50;83.60;;;;;;5034173;28;20052;-67
2023/04/19 15:14:20;;;;;;;5.15;2.75;;;20.50;83.10;;;;;;5032996;28;20057;-67
2023/04/19 15:17:23;;;;;;;3.20;2.90;;;20.40;83.60;;;;;;5033913;28;20048;-67
2023/04/19 15:20:27;;;;;;;4.18;3.03;;;20.40;82.30;;;;;;5033558;28;20045;-66
2023/04/19 15:23:34;;;;;;;3.05;2.72;;;20.40;82.80;;;;;;5033949;28;20052;-66
2023/04/19 15:26:41;;;;;;;3.30;3.00;;;20.40;82.30;;;;;;5033953;28;20056;-67
2023/04/19 15:29:46;;;;;;;2.83;2.38;;;20.40;83.60;;;;;;5033817;28;20048;-66
2023/04/19 15:32:51;;;;;;;5.00;2.60;;;20.40;84.40;;;;;;5033559;28;20064;-66
2023/04/19 15:35:56;;;;;;;3.35;2.70;;;20.40;85.00;;;;;;5033673;28;20495;-66
2023/04/19 15:39:00;;;;;;;4.03;2.88;;;20.40;84.40;;;;;;5033320;28;20044;-67
2023/04/19 15:42:05;;;;;;;3.80;2.90;;;20.40;83.80;;;;;;5033397;28;20060;-67
2023/04/19 15:45:09;;;;;;;3.90;2.97;;;20.30;84.50;;;;;;5033675;28;20072;-66
2023/04/19 15:48:14;;;;;;;3.88;2.50;;;20.20;85.30;;;;;;5033242;28;20052;-67
2023/04/19 15:51:19;;;;;;;7.35;3.03;;;20.10;85.30;;;;;;5033288;28;20036;-66
2023/04/19 15:54:23;;;;;;;3.45;2.88;;;20.00;85.40;;;;;;5033070;28;20048;-67
2023/04/19 15:57:28;;;;;;;4.13;2.88;;;19.90;84.90;;;;;;5033300;28;20040;-66
2023/04/19 16:00:32;;;;;;;3.63;2.90;;;19.90;84.90;;;;;;5033103;28;20068;-68
2023/04/19 16:03:36;;;;;;;7.40;3.10;;;19.90;85.10;;;;;;5032910;28;20124;-67
2023/04/19 16:06:41;;;;;;;4.32;3.85;;;19.90;85.80;;;;;;5033157;28;20428;-69